createdAt,value
2017-12-11T00:00:19.827Z,19.30
2017-12-11T00:02:47.451Z,19.57
2017-12-11T00:05:15.110Z,19.73
2017-12-11T00:07:42.706Z,19.10
2017-12-11T00:10:10.314Z,15.37
2017-12-11T00:12:37.893Z,21.87
2017-12-11T00:15:05.510Z,22.70
2017-12-11T00:17:33.093Z,15.60
2017-12-11T00:20:00.980Z,18.00
2017-12-11T00:22:40.729Z,25.33
2017-12-11T00:25:08.342Z,27.30
2017-12-11T00:27:35.964Z,27.73
2017-12-11T00:30:03.566Z,23.40
2017-12-11T00:32:31.149Z,20.60
2017-12-11T00:34:59.045Z,21.73
2017-12-11T00:37:26.635Z,20.23
2017-12-11T00:39:54.261Z,21.47
2017-12-11T00:42:21.841Z,17.63
2017-12-11T00:44:49.436Z,20.23
2017-12-11T00:47:17.159Z,21.60
2017-12-11T00:49:44.748Z,15.23
2017-12-11T00:52:12.504Z,12.90
2017-12-11T00:54:40.104Z,14.37
2017-12-11T00:57:07.730Z,19.53
2017-12-11T00:59:35.327Z,18.90
2017-12-11T01:02:02.904Z,17.23
2017-12-11T01:04:30.532Z,13.40
2017-12-11T01:06:58.462Z,16.97
2017-12-11T01:09:26.063Z,15.20
2017-12-11T01:11:53.704Z,15.90
2017-12-11T01:14:21.297Z,14.10
2017-12-11T01:16:48.936Z,17.90
2017-12-11T01:19:16.520Z,14.40
2017-12-11T01:21:44.106Z,11.10
2017-12-11T01:24:11.996Z,12.80
2017-12-11T01:26:39.588Z,12.13
2017-12-11T01:29:07.216Z,17.57
2017-12-11T01:31:34.792Z,20.83
2017-12-11T01:34:02.387Z,12.57
2017-12-11T01:36:29.987Z,13.43
2017-12-11T01:38:57.576Z,11.53
2017-12-11T01:41:25.188Z,10.80
2017-12-11T01:43:52.824Z,11.20
2017-12-11T01:46:20.419Z,13.13
2017-12-11T01:48:48.425Z,10.03
2017-12-11T01:51:16.018Z,11.10
2017-12-11T01:53:43.632Z,13.80
2017-12-11T01:56:11.238Z,19.90
2017-12-11T01:58:38.806Z,11.70
2017-12-11T02:01:06.412Z,11.63
2017-12-11T02:03:34.312Z,14.13
2017-12-11T02:06:01.946Z,10.27
2017-12-11T02:08:29.516Z,10.57
2017-12-11T02:10:57.103Z,14.17
2017-12-11T02:13:24.770Z,12.60
2017-12-11T02:15:52.363Z,15.90
2017-12-11T02:18:19.990Z,15.63
2017-12-11T02:20:48.882Z,17.50
2017-12-11T02:23:16.916Z,10.70
2017-12-11T02:25:44.820Z,9.80
2017-12-11T02:28:12.697Z,21.00
2017-12-11T02:30:40.324Z,10.83
2017-12-11T02:33:07.912Z,12.80
2017-12-11T02:35:35.477Z,12.10
2017-12-11T02:38:03.127Z,10.90
2017-12-11T02:40:30.789Z,11.00
2017-12-11T02:42:58.451Z,12.40
2017-12-11T02:45:26.061Z,9.93
2017-12-11T02:47:53.895Z,11.50
2017-12-11T02:50:21.492Z,11.20
2017-12-11T02:52:49.108Z,11.00
2017-12-11T02:55:16.736Z,16.70
2017-12-11T02:57:44.317Z,10.30
2017-12-11T03:00:12.194Z,10.00
2017-12-11T03:02:39.804Z,11.67
2017-12-11T03:05:07.629Z,11.80
2017-12-11T03:07:35.255Z,12.27
2017-12-11T03:10:02.832Z,11.30
2017-12-11T03:12:30.409Z,10.07
2017-12-11T03:14:58.274Z,12.47
2017-12-11T03:17:25.854Z,14.80
2017-12-11T03:19:53.460Z,10.10
2017-12-11T03:22:21.060Z,10.33
2017-12-11T03:24:48.633Z,14.10
2017-12-11T03:27:16.224Z,11.30
2017-12-11T03:29:43.842Z,11.87
2017-12-11T03:32:11.420Z,12.10
2017-12-11T03:34:39.070Z,15.10
2017-12-11T03:37:06.772Z,12.07
2017-12-11T03:39:34.369Z,13.10
2017-12-11T03:42:02.060Z,13.87
2017-12-11T03:44:29.920Z,10.30
2017-12-11T03:46:57.502Z,10.13
2017-12-11T03:49:25.123Z,13.50
2017-12-11T03:51:52.697Z,11.00
2017-12-11T03:54:20.320Z,10.93
2017-12-11T03:56:47.911Z,10.10
2017-12-11T03:59:15.566Z,11.80
2017-12-11T04:01:43.232Z,19.70
2017-12-11T04:04:10.807Z,11.07
2017-12-11T04:06:38.444Z,12.73
2017-12-11T04:09:06.025Z,11.80
2017-12-11T04:11:33.851Z,10.60
2017-12-11T04:14:01.496Z,10.50
2017-12-11T04:16:29.336Z,10.73
2017-12-11T04:18:56.964Z,10.10
2017-12-11T04:21:24.557Z,12.93
2017-12-11T04:23:52.181Z,9.40
2017-12-11T04:26:20.088Z,11.03
2017-12-11T04:28:47.710Z,10.20
2017-12-11T04:31:15.376Z,12.27
2017-12-11T04:33:42.969Z,9.67
2017-12-11T04:36:10.595Z,10.80
2017-12-11T04:38:38.256Z,9.73
2017-12-11T04:41:05.828Z,9.67
2017-12-11T04:43:33.478Z,10.20
2017-12-11T04:46:01.055Z,9.53
2017-12-11T04:48:28.634Z,16.23
2017-12-11T04:50:56.258Z,10.47
2017-12-11T04:53:23.832Z,10.17
2017-12-11T04:55:51.473Z,9.30
2017-12-11T04:58:19.300Z,9.90
2017-12-11T05:00:46.881Z,9.73
2017-12-11T05:03:14.484Z,9.90
2017-12-11T05:05:42.063Z,12.83
2017-12-11T05:08:09.689Z,9.90
2017-12-11T05:10:37.289Z,15.13
2017-12-11T05:13:04.902Z,10.00
2017-12-11T05:15:32.502Z,9.60
2017-12-11T05:18:00.097Z,10.03
2017-12-11T05:20:27.701Z,9.83
2017-12-11T05:22:55.269Z,11.53
2017-12-11T05:25:22.840Z,10.70
2017-12-11T05:27:50.456Z,10.33
2017-12-11T05:30:18.040Z,10.80
2017-12-11T05:32:45.665Z,9.67
2017-12-11T05:35:13.338Z,10.60
2017-12-11T05:37:40.923Z,9.90
2017-12-11T05:40:08.540Z,10.00
2017-12-11T05:42:36.141Z,10.70
2017-12-11T05:47:37.612Z,10.37
2017-12-11T05:50:05.563Z,10.27
2017-12-11T05:52:33.152Z,9.83
2017-12-11T05:55:00.724Z,14.03
2017-12-11T05:57:28.340Z,12.47
2017-12-11T05:59:55.924Z,10.80
2017-12-11T06:02:23.584Z,11.70
2017-12-11T06:04:51.168Z,11.97
2017-12-11T06:07:18.764Z,12.40
2017-12-11T06:09:46.392Z,11.57
2017-12-11T06:12:14.029Z,12.63
2017-12-11T06:14:41.665Z,12.63
2017-12-11T06:17:09.259Z,14.17
2017-12-11T06:19:37.113Z,12.30
2017-12-11T06:22:04.735Z,12.20
2017-12-11T06:24:32.311Z,11.73
2017-12-11T06:26:59.933Z,12.53
2017-12-11T06:29:27.532Z,12.00
2017-12-11T06:31:55.121Z,13.30
2017-12-11T06:34:22.729Z,11.90
2017-12-11T06:36:50.344Z,11.77
2017-12-11T06:39:18.064Z,15.60
2017-12-11T06:41:45.652Z,13.00
2017-12-11T06:44:13.256Z,12.67
2017-12-11T06:46:40.878Z,13.40
2017-12-11T06:49:08.757Z,13.73
2017-12-11T06:51:36.727Z,12.23
2017-12-11T06:54:04.593Z,13.10
2017-12-11T06:56:32.176Z,14.60
2017-12-11T06:58:59.878Z,12.93
2017-12-11T07:01:27.460Z,13.47
2017-12-11T07:03:55.069Z,13.30
2017-12-11T07:06:22.706Z,12.93
2017-12-11T07:08:50.400Z,12.67
2017-12-11T07:11:18.007Z,13.10
2017-12-11T07:13:45.592Z,13.83
2017-12-11T07:16:13.247Z,14.63
2017-12-11T07:18:40.827Z,13.90
2017-12-11T07:21:08.424Z,13.03
2017-12-11T07:23:36.041Z,13.87
2017-12-11T07:26:03.624Z,13.97
2017-12-11T07:28:31.268Z,15.00
2017-12-11T07:30:58.849Z,14.73
2017-12-11T07:33:26.498Z,17.13
2017-12-11T07:35:54.456Z,15.43
2017-12-11T07:38:22.063Z,14.53
2017-12-11T07:40:49.668Z,16.53
2017-12-11T07:43:17.259Z,20.37
2017-12-11T07:45:44.852Z,17.10
2017-12-11T07:48:12.720Z,16.47
2017-12-11T07:50:40.321Z,18.20
2017-12-11T07:53:07.928Z,15.30
2017-12-11T07:55:35.988Z,15.43
2017-12-11T07:58:04.224Z,15.07
2017-12-11T08:00:31.835Z,16.33
2017-12-11T08:02:59.404Z,15.30
2017-12-11T08:05:27.020Z,15.23
2017-12-11T08:07:54.852Z,17.70
2017-12-11T08:10:22.461Z,17.07
2017-12-11T08:12:50.320Z,16.40
2017-12-11T08:15:18.551Z,15.53
2017-12-11T08:17:46.216Z,16.87
2017-12-11T08:20:13.846Z,28.73
2017-12-11T08:22:41.456Z,15.20
2017-12-11T08:25:09.156Z,16.57
2017-12-11T08:27:36.765Z,17.60
2017-12-11T08:30:04.394Z,14.57
2017-12-11T08:32:32.016Z,18.80
2017-12-11T08:34:59.643Z,16.73
2017-12-11T08:37:27.565Z,17.87
2017-12-11T08:39:55.151Z,17.03
2017-12-11T08:42:23.097Z,16.47
2017-12-11T08:44:50.707Z,19.10
2017-12-11T08:47:18.331Z,19.13
2017-12-11T08:49:46.198Z,18.30
2017-12-11T08:52:13.790Z,17.10
2017-12-11T08:54:41.426Z,17.27
2017-12-11T08:57:09.067Z,24.73
2017-12-11T08:59:36.708Z,18.37
2017-12-11T09:02:04.355Z,23.80
2017-12-11T09:04:31.968Z,21.47
2017-12-11T09:06:59.619Z,19.33
2017-12-11T09:09:27.229Z,19.50
2017-12-11T09:11:54.883Z,18.30
2017-12-11T09:14:22.820Z,19.70
2017-12-11T09:16:50.432Z,18.87
2017-12-11T09:19:18.071Z,21.83
2017-12-11T09:21:45.652Z,19.00
2017-12-11T09:24:13.294Z,20.27
2017-12-11T09:26:40.896Z,21.03
2017-12-11T09:29:08.517Z,19.30
2017-12-11T09:31:36.124Z,22.63
2017-12-11T09:34:03.724Z,19.17
2017-12-11T09:36:31.362Z,21.90
2017-12-11T09:38:59.018Z,18.33
2017-12-11T09:41:28.129Z,24.13
2017-12-11T09:43:55.760Z,19.33
2017-12-11T09:46:23.386Z,20.47
2017-12-11T09:48:51.027Z,21.07
2017-12-11T09:51:18.649Z,35.77
2017-12-11T09:53:46.253Z,23.47
2017-12-11T09:56:13.916Z,20.73
2017-12-11T09:58:41.517Z,20.40
2017-12-11T10:01:09.088Z,22.03
2017-12-11T10:03:36.711Z,23.90
2017-12-11T10:06:04.533Z,19.67
2017-12-11T10:08:32.117Z,18.40
2017-12-11T10:10:59.734Z,21.27
2017-12-11T10:13:27.339Z,17.67
2017-12-11T10:15:54.917Z,19.67
2017-12-11T10:18:22.533Z,18.67
2017-12-11T10:20:50.136Z,18.00
2017-12-11T10:23:17.721Z,18.87
2017-12-11T10:25:45.361Z,23.10
2017-12-11T10:28:13.184Z,23.50
2017-12-11T10:30:40.807Z,27.70
2017-12-11T10:33:08.381Z,21.83
2017-12-11T10:35:35.967Z,27.40
2017-12-11T10:38:03.621Z,19.30
2017-12-11T10:40:31.249Z,20.60
2017-12-11T10:42:58.878Z,21.50
2017-12-11T10:45:26.478Z,24.77
2017-12-11T10:47:54.051Z,25.77
2017-12-11T10:50:21.908Z,24.80
2017-12-11T10:52:49.488Z,24.67
2017-12-11T10:55:17.138Z,27.43
2017-12-11T10:57:44.727Z,24.03
2017-12-11T11:00:12.356Z,26.40
2017-12-11T11:02:40.046Z,22.50
2017-12-11T11:05:07.627Z,20.70
2017-12-11T11:07:35.261Z,24.50
2017-12-11T11:10:03.269Z,24.60
2017-12-11T11:12:30.864Z,21.70
2017-12-11T11:14:58.618Z,22.80
2017-12-11T11:17:26.261Z,21.53
2017-12-11T11:19:53.882Z,24.33
2017-12-11T11:22:21.491Z,30.90
2017-12-11T11:24:49.077Z,21.97
2017-12-11T11:27:16.688Z,23.33
2017-12-11T11:29:44.292Z,22.37
2017-12-11T11:32:12.010Z,25.43
2017-12-11T11:34:39.619Z,21.37
2017-12-11T11:37:07.690Z,22.47
2017-12-11T11:39:35.328Z,24.03
2017-12-11T11:42:03.329Z,22.40
2017-12-11T11:44:30.977Z,25.47
2017-12-11T11:46:58.560Z,21.33
2017-12-11T11:49:26.383Z,22.97
2017-12-11T11:51:53.999Z,24.63
2017-12-11T11:54:21.841Z,22.80
2017-12-11T11:56:49.472Z,24.40
2017-12-11T11:59:17.095Z,30.90
2017-12-11T12:01:44.676Z,25.53
2017-12-11T12:04:12.296Z,29.97
2017-12-11T12:06:39.904Z,25.57
2017-12-11T12:09:07.568Z,30.83
2017-12-11T12:11:35.159Z,34.30
2017-12-11T12:14:02.826Z,25.70
2017-12-11T12:16:30.431Z,28.77
2017-12-11T12:18:58.008Z,22.80
2017-12-11T12:21:25.633Z,23.00
2017-12-11T12:23:53.282Z,25.23
2017-12-11T12:26:21.152Z,26.73
2017-12-11T12:28:48.828Z,21.47
2017-12-11T12:31:16.412Z,31.93
2017-12-11T12:33:44.196Z,28.33
2017-12-11T12:36:11.909Z,25.37
2017-12-11T12:38:39.506Z,26.90
2017-12-11T12:41:07.121Z,25.80
2017-12-11T12:43:35.412Z,24.43
2017-12-11T12:46:03.081Z,23.90
2017-12-11T12:48:30.722Z,30.13
2017-12-11T12:50:58.605Z,26.00
2017-12-11T12:53:26.243Z,24.80
2017-12-11T12:55:53.845Z,27.20
2017-12-11T12:58:21.801Z,27.07
2017-12-11T13:00:49.420Z,26.77
2017-12-11T13:03:17.032Z,31.40
2017-12-11T13:05:44.652Z,33.60
2017-12-11T13:08:12.242Z,32.90
2017-12-11T13:10:39.933Z,30.40
2017-12-11T13:13:07.540Z,38.77
2017-12-11T13:15:35.440Z,36.83
2017-12-11T13:18:03.184Z,43.57
2017-12-11T13:20:30.833Z,37.27
2017-12-11T13:22:58.494Z,37.00
2017-12-11T13:25:26.109Z,42.00
2017-12-11T13:27:53.718Z,38.03
2017-12-11T13:30:21.380Z,32.57
2017-12-11T13:32:49.246Z,33.57
2017-12-11T13:35:16.908Z,33.17
2017-12-11T13:37:44.481Z,32.73
2017-12-11T13:40:12.069Z,35.20
2017-12-11T13:42:39.694Z,33.87
2017-12-11T13:45:07.324Z,33.43
2017-12-11T13:47:35.192Z,34.67
2017-12-11T13:50:02.776Z,35.50
2017-12-11T13:52:30.374Z,32.90
2017-12-11T13:54:58.257Z,34.33
2017-12-11T13:57:26.629Z,34.23
2017-12-11T13:59:55.120Z,37.73
2017-12-11T14:02:22.706Z,30.23
2017-12-11T14:04:50.296Z,25.53
2017-12-11T14:07:17.988Z,25.37
2017-12-11T14:09:45.626Z,24.47
2017-12-11T14:12:13.265Z,25.47
2017-12-11T14:14:40.921Z,27.73
2017-12-11T14:17:08.500Z,25.30
2017-12-11T14:19:36.128Z,21.97
2017-12-11T14:22:03.716Z,33.13
2017-12-11T14:24:31.349Z,22.47
2017-12-11T14:26:58.934Z,25.10
2017-12-11T14:29:26.678Z,21.80
2017-12-11T14:31:54.335Z,26.90
2017-12-11T14:34:21.933Z,24.53
2017-12-11T14:36:49.864Z,22.93
2017-12-11T14:39:17.448Z,23.87
2017-12-11T14:41:45.025Z,20.17
2017-12-11T14:44:12.648Z,21.43
2017-12-11T14:46:40.400Z,23.20
2017-12-11T14:49:08.054Z,23.60
2017-12-11T14:51:35.717Z,22.07
2017-12-11T14:54:03.319Z,21.80
2017-12-11T14:56:30.981Z,27.07
2017-12-11T14:58:58.574Z,27.20
2017-12-11T15:01:26.303Z,25.17
2017-12-11T15:03:53.890Z,27.23
2017-12-11T15:06:21.524Z,32.43
2017-12-11T15:08:49.192Z,33.77
2017-12-11T15:11:16.780Z,32.87
2017-12-11T15:13:44.410Z,32.00
2017-12-11T15:16:12.070Z,33.03
2017-12-11T15:18:39.807Z,33.63
2017-12-11T15:21:07.520Z,32.63
2017-12-11T15:23:35.157Z,30.93
2017-12-11T15:26:02.938Z,34.27
2017-12-11T15:28:30.582Z,34.97
2017-12-11T15:30:58.219Z,33.83
2017-12-11T15:33:26.116Z,28.80
2017-12-11T15:35:53.984Z,27.03
2017-12-11T15:38:21.627Z,33.97
2017-12-11T15:40:49.252Z,28.30
2017-12-11T15:43:16.852Z,37.33
2017-12-11T15:45:44.472Z,29.97
2017-12-11T15:48:12.088Z,37.10
2017-12-11T15:50:39.735Z,32.43
2017-12-11T15:53:07.473Z,37.97
2017-12-11T15:55:35.387Z,36.00
2017-12-11T15:58:03.006Z,33.67
2017-12-11T16:00:30.613Z,37.10
2017-12-11T16:02:58.267Z,44.40
2017-12-11T16:05:25.938Z,48.93
2017-12-11T16:07:53.597Z,47.20
2017-12-11T16:10:21.215Z,45.70
2017-12-11T16:12:48.812Z,44.40
2017-12-11T16:15:16.457Z,35.00
2017-12-11T16:17:44.037Z,37.07
2017-12-11T16:20:11.710Z,35.87
2017-12-11T16:22:39.337Z,31.40
2017-12-11T16:25:06.922Z,28.33
2017-12-11T16:27:34.564Z,30.87
2017-12-11T16:30:02.269Z,32.20
2017-12-11T16:32:29.862Z,39.47
2017-12-11T16:34:57.477Z,29.40
2017-12-11T16:37:25.089Z,32.67
2017-12-11T16:39:52.708Z,29.20
2017-12-11T16:42:20.326Z,28.57
2017-12-11T16:44:47.910Z,30.27
2017-12-11T16:47:15.529Z,42.73
2017-12-11T16:49:43.108Z,31.07
2017-12-11T16:52:10.736Z,30.07
2017-12-11T16:54:38.577Z,35.27
2017-12-11T16:57:06.228Z,31.10
2017-12-11T16:59:33.844Z,36.03
2017-12-11T17:02:01.446Z,31.40
2017-12-11T17:04:29.732Z,34.87
2017-12-11T17:06:57.695Z,33.83
2017-12-11T17:09:25.331Z,31.20
2017-12-11T17:11:53.248Z,30.57
2017-12-11T17:14:20.860Z,24.67
2017-12-11T17:16:49.556Z,38.23
2017-12-11T17:19:17.466Z,29.80
2017-12-11T17:21:45.251Z,28.27
2017-12-11T17:24:12.972Z,27.20
2017-12-11T17:26:40.668Z,29.87
2017-12-11T17:29:08.278Z,28.20
2017-12-11T17:31:35.857Z,28.57
2017-12-11T17:34:03.485Z,24.37
2017-12-11T17:36:31.065Z,26.93
2017-12-11T17:38:58.773Z,33.97
2017-12-11T17:41:26.389Z,25.37
2017-12-11T17:43:54.000Z,33.13
2017-12-11T17:46:21.657Z,36.10
2017-12-11T17:48:49.255Z,28.00
2017-12-11T17:51:16.833Z,29.70
2017-12-11T17:53:44.477Z,26.50
2017-12-11T17:56:12.054Z,27.80
2017-12-11T17:58:47.688Z,25.17
2017-12-11T18:01:15.265Z,27.47
2017-12-11T18:03:43.181Z,24.10
2017-12-11T18:06:10.882Z,25.47
2017-12-11T18:08:38.465Z,30.33
2017-12-11T18:11:06.080Z,37.07
2017-12-11T18:13:33.683Z,34.40
2017-12-11T18:16:01.273Z,24.90
2017-12-11T18:18:28.903Z,31.63
2017-12-11T18:20:56.505Z,23.30
2017-12-11T18:23:34.534Z,32.50
2017-12-11T18:26:02.358Z,26.83
2017-12-11T18:28:29.961Z,24.37
2017-12-11T18:30:57.610Z,25.40
2017-12-11T18:33:25.296Z,23.37
2017-12-11T18:35:52.940Z,23.60
2017-12-11T18:38:20.601Z,19.87
2017-12-11T18:40:48.176Z,22.27
2017-12-11T18:43:15.804Z,28.20
2017-12-11T18:45:43.404Z,24.30
2017-12-11T18:48:11.886Z,22.60
2017-12-11T18:50:39.836Z,37.13
2017-12-11T18:53:07.412Z,27.90
2017-12-11T18:55:35.004Z,24.97
2017-12-11T18:58:02.655Z,29.87
2017-12-11T19:00:30.276Z,23.63
2017-12-11T19:02:58.039Z,28.10
2017-12-11T19:05:25.647Z,27.00
2017-12-11T19:07:53.285Z,28.10
2017-12-11T19:10:20.865Z,24.73
2017-12-11T19:12:48.810Z,21.03
2017-12-11T19:15:16.393Z,24.73
2017-12-11T19:17:44.238Z,21.83
2017-12-11T19:20:12.209Z,22.87
2017-12-11T19:22:39.850Z,20.87
2017-12-11T19:25:07.504Z,23.80
2017-12-11T19:27:35.099Z,23.07
2017-12-11T19:30:02.703Z,27.70
2017-12-11T19:32:30.335Z,27.93
2017-12-11T19:34:57.909Z,21.97
2017-12-11T19:37:26.196Z,23.00
2017-12-11T19:39:54.127Z,26.37
2017-12-11T19:42:21.798Z,29.13
2017-12-11T19:44:49.395Z,32.27
2017-12-11T19:47:16.976Z,21.97
2017-12-11T19:49:44.713Z,27.73
2017-12-11T19:52:12.588Z,31.43
2017-12-11T19:54:40.528Z,25.30
2017-12-11T19:57:08.164Z,21.20
2017-12-11T19:59:35.773Z,20.30
2017-12-11T20:02:03.429Z,22.63
2017-12-11T20:04:31.098Z,25.63
2017-12-11T20:06:58.812Z,25.53
2017-12-11T20:09:26.735Z,22.93
2017-12-11T20:11:54.366Z,27.20
2017-12-11T20:14:21.992Z,24.47
2017-12-11T20:16:49.646Z,24.37
2017-12-11T20:19:17.332Z,23.43
2017-12-11T20:21:44.937Z,24.13
2017-12-11T20:24:12.518Z,22.30
2017-12-11T20:26:40.151Z,23.60
2017-12-11T20:29:07.736Z,19.43
2017-12-11T20:31:35.354Z,23.47
2017-12-11T20:34:02.966Z,20.20
2017-12-11T20:36:30.559Z,23.67
2017-12-11T20:38:58.218Z,23.80
2017-12-11T20:41:25.941Z,22.03
2017-12-11T20:43:53.540Z,19.23
2017-12-11T20:46:21.168Z,23.53
2017-12-11T20:48:48.900Z,25.30
2017-12-11T20:51:16.586Z,22.37
2017-12-11T20:53:44.173Z,30.50
2017-12-11T20:56:12.093Z,23.83
2017-12-11T20:58:39.716Z,29.03
2017-12-11T21:01:07.620Z,22.13
2017-12-11T21:03:36.134Z,26.77
2017-12-11T21:06:03.717Z,23.83
2017-12-11T21:08:31.569Z,26.33
2017-12-11T21:10:59.177Z,25.40
2017-12-11T21:13:26.749Z,25.30
2017-12-11T21:15:54.375Z,22.40
2017-12-11T21:18:22.295Z,21.10
2017-12-11T21:20:50.094Z,24.63
2017-12-11T21:23:17.720Z,23.47
2017-12-11T21:25:45.379Z,26.90
2017-12-11T21:28:13.017Z,25.20
2017-12-11T21:30:40.604Z,22.47
2017-12-11T21:33:08.179Z,32.20
2017-12-11T21:35:35.804Z,21.70
2017-12-11T21:38:03.702Z,30.07
2017-12-11T21:40:31.344Z,23.47
2017-12-11T21:42:58.975Z,27.93
2017-12-11T21:45:26.895Z,27.17
2017-12-11T21:47:54.721Z,23.07
2017-12-11T21:50:22.312Z,24.20
2017-12-11T21:52:49.958Z,23.83
2017-12-11T21:55:17.544Z,24.70
2017-12-11T21:57:45.128Z,25.33
2017-12-11T22:00:13.182Z,23.27
2017-12-11T22:02:40.777Z,25.73
2017-12-11T22:05:08.503Z,23.57
2017-12-11T22:07:36.100Z,24.13
2017-12-11T22:10:03.686Z,27.93
2017-12-11T22:12:31.305Z,26.30
2017-12-11T22:14:58.889Z,26.23
2017-12-11T22:17:26.822Z,22.50
2017-12-11T22:19:54.682Z,24.90
2017-12-11T22:22:22.382Z,21.43
2017-12-11T22:24:49.986Z,22.80
2017-12-11T22:27:17.626Z,21.37
2017-12-11T22:29:45.536Z,23.73
2017-12-11T22:32:13.132Z,24.83
2017-12-11T22:34:41.176Z,21.90
2017-12-11T22:37:08.839Z,22.90
2017-12-11T22:39:36.700Z,20.37
2017-12-11T22:42:04.609Z,22.93
2017-12-11T22:44:32.202Z,34.97
2017-12-11T22:46:59.799Z,23.33
2017-12-11T22:49:27.423Z,22.60
2017-12-11T22:51:55.016Z,21.60
2017-12-11T22:54:22.644Z,23.27
2017-12-11T22:56:50.272Z,21.67
2017-12-11T22:59:17.896Z,21.97
2017-12-11T23:01:45.510Z,19.97
2017-12-11T23:04:13.088Z,20.57
2017-12-11T23:06:41.223Z,19.80
2017-12-11T23:09:08.822Z,25.07
2017-12-11T23:11:36.729Z,19.87
2017-12-11T23:14:04.336Z,25.60
2017-12-11T23:16:31.926Z,21.10
2017-12-11T23:18:59.553Z,24.83
2017-12-11T23:21:27.144Z,26.03
2017-12-11T23:23:54.719Z,22.13
2017-12-11T23:26:22.334Z,18.70
2017-12-11T23:28:50.020Z,22.70
2017-12-11T23:31:17.669Z,22.77
2017-12-11T23:33:45.332Z,23.97
2017-12-11T23:36:13.158Z,24.77
2017-12-11T23:38:40.760Z,21.23
2017-12-11T23:41:08.331Z,22.77
2017-12-11T23:43:36.253Z,24.40
2017-12-11T23:46:03.835Z,25.00
2017-12-11T23:48:31.681Z,21.97
2017-12-11T23:50:59.289Z,23.77
2017-12-11T23:53:26.987Z,25.93
2017-12-11T23:55:54.873Z,24.30
2017-12-11T23:58:22.459Z,22.70
